Terminal Aerodrome Forecast
Issued by NWS

Home | Current Version | Previous Version | Text Only | Print | Product List | Glossary Off
Versions: 1 2 3 4 5 6 7 8 9 10 11 12 13 14 15 16 17 18

000
FTUS43 KMPX 210524
TAFRNH
TAF
KRNH 210524Z 2106/2206 VRB02KT P6SM OVC080
     FM210700 00000KT 4SM BR OVC070
      TEMPO 2110/2114 2SM BR BKN005
     FM211400 04003KT 6SM BR OVC070
     FM212200 04006KT P6SM OVC040
     FM220200 04006KT P6SM OVC030
     FM220500 04007KT P6SM OVC015=

USA.gov is the U.S. government's official web portal to all federal, state and local government web resources and services.